sensor_id;sensor_type;location;lat;lon;timestamp;temperature;humidity
11079;DHT22;5592;49.234;7.268;2023-05-10T00:01:26;12.60;99.90
11079;DHT22;5592;49.234;7.268;2023-05-10T00:03:51;12.60;99.90
11079;DHT22;5592;49.234;7.268;2023-05-10T00:06:17;12.60;99.90
11079;DHT22;5592;49.234;7.268;2023-05-10T00:08:43;12.60;99.90
11079;DHT22;5592;49.234;7.268;2023-05-10T00:11:08;12.60;99.90
11079;DHT22;5592;49.234;7.268;2023-05-10T00:13:34;12.60;99.90
11079;DHT22;5592;49.234;7.268;2023-05-10T00:16:00;12.60;99.90
11079;DHT22;5592;49.234;7.268;2023-05-10T00:18:25;12.60;99.90
11079;DHT22;5592;49.234;7.268;2023-05-10T00:20:51;12.60;99.90
11079;DHT22;5592;49.234;7.268;2023-05-10T00:23:16;12.60;99.90
11079;DHT22;5592;49.234;7.268;2023-05-10T00:25:42;12.60;99.90
11079;DHT22;5592;49.234;7.268;2023-05-10T00:28:08;12.60;99.90
11079;DHT22;5592;49.234;7.268;2023-05-10T00:30:33;12.60;99.90
11079;DHT22;5592;49.234;7.268;2023-05-10T00:32:59;12.60;99.90
11079;DHT22;5592;49.234;7.268;2023-05-10T00:35:24;12.60;99.90
11079;DHT22;5592;49.234;7.268;2023-05-10T00:37:51;12.60;99.90
11079;DHT22;5592;49.234;7.268;2023-05-10T00:40:17;12.70;99.90
11079;DHT22;5592;49.234;7.268;2023-05-10T00:42:42;12.70;99.90
11079;DHT22;5592;49.234;7.268;2023-05-10T00:45:08;12.70;99.90
11079;DHT22;5592;49.234;7.268;2023-05-10T00:47:34;12.70;99.90
11079;DHT22;5592;49.234;7.268;2023-05-10T00:50:00;12.70;99.90
11079;DHT22;5592;49.234;7.268;2023-05-10T00:52:27;12.60;99.90
11079;DHT22;5592;49.234;7.268;2023-05-10T00:54:54;12.70;99.90
11079;DHT22;5592;49.234;7.268;2023-05-10T00:57:20;12.60;99.90
11079;DHT22;5592;49.234;7.268;2023-05-10T00:59:46;12.60;99.90
11079;DHT22;5592;49.234;7.268;2023-05-10T01:02:12;12.60;99.90
11079;DHT22;5592;49.234;7.268;2023-05-10T01:04:38;12.60;99.90
11079;DHT22;5592;49.234;7.268;2023-05-10T01:07:05;12.60;99.90
11079;DHT22;5592;49.234;7.268;2023-05-10T01:09:31;12.50;99.90
11079;DHT22;5592;49.234;7.268;2023-05-10T01:11:57;12.60;99.90
11079;DHT22;5592;49.234;7.268;2023-05-10T01:14:23;12.50;99.90
11079;DHT22;5592;49.234;7.268;2023-05-10T01:16:50;12.50;99.90
11079;DHT22;5592;49.234;7.268;2023-05-10T01:19:23;12.40;99.90
11079;DHT22;5592;49.234;7.268;2023-05-10T01:30:35;12.20;99.90
11079;DHT22;5592;49.234;7.268;2023-05-10T01:33:24;12.10;99.90
11079;DHT22;5592;49.234;7.268;2023-05-10T01:35:59;12.10;99.90
11079;DHT22;5592;49.234;7.268;2023-05-10T01:38:37;12.10;99.90
11079;DHT22;5592;49.234;7.268;2023-05-10T01:41:13;12.20;99.90
11079;DHT22;5592;49.234;7.268;2023-05-10T01:44:01;12.10;99.90
11079;DHT22;5592;49.234;7.268;2023-05-10T01:46:36;12.10;99.90
11079;DHT22;5592;49.234;7.268;2023-05-10T01:49:07;12.10;99.90
11079;DHT22;5592;49.234;7.268;2023-05-10T01:51:44;12.10;99.90
11079;DHT22;5592;49.234;7.268;2023-05-10T01:54:13;12.20;99.90
11079;DHT22;5592;49.234;7.268;2023-05-10T01:56:40;12.20;99.90
11079;DHT22;5592;49.234;7.268;2023-05-10T01:59:12;12.20;99.90
11079;DHT22;5592;49.234;7.268;2023-05-10T02:01:39;12.20;99.90
11079;DHT22;5592;49.234;7.268;2023-05-10T02:04:07;12.30;99.90
11079;DHT22;5592;49.234;7.268;2023-05-10T02:06:34;12.30;99.90
11079;DHT22;5592;49.234;7.268;2023-05-10T02:09:01;12.30;99.90
11079;DHT22;5592;49.234;7.268;2023-05-10T02:11:28;12.30;99.90
11079;DHT22;5592;49.234;7.268;2023-05-10T02:13:55;12.30;99.90
11079;DHT22;5592;49.234;7.268;2023-05-10T02:16:24;12.30;99.90
11079;DHT22;5592;49.234;7.268;2023-05-10T02:18:52;12.30;99.90
11079;DHT22;5592;49.234;7.268;2023-05-10T02:21:19;12.30;99.90
11079;DHT22;5592;49.234;7.268;2023-05-10T02:23:46;12.30;99.90
11079;DHT22;5592;49.234;7.268;2023-05-10T02:26:14;12.20;99.90
11079;DHT22;5592;49.234;7.268;2023-05-10T02:28:40;12.20;99.90
11079;DHT22;5592;49.234;7.268;2023-05-10T02:31:07;12.10;99.90
11079;DHT22;5592;49.234;7.268;2023-05-10T02:33:38;12.10;99.90
11079;DHT22;5592;49.234;7.268;2023-05-10T02:36:07;12.10;99.90
11079;DHT22;5592;49.234;7.268;2023-05-10T02:38:33;12.10;99.90
11079;DHT22;5592;49.234;7.268;2023-05-10T02:41:01;12.10;99.90
11079;DHT22;5592;49.234;7.268;2023-05-10T02:43:28;12.10;99.90
11079;DHT22;5592;49.234;7.268;2023-05-10T02:45:55;12.00;99.90
11079;DHT22;5592;49.234;7.268;2023-05-10T02:48:21;12.00;99.90
11079;DHT22;5592;49.234;7.268;2023-05-10T02:50:47;12.00;99.90
11079;DHT22;5592;49.234;7.268;2023-05-10T02:53:23;12.00;99.90
11079;DHT22;5592;49.234;7.268;2023-05-10T02:55:56;12.00;99.90
11079;DHT22;5592;49.234;7.268;2023-05-10T02:58:22;12.00;99.90
11079;DHT22;5592;49.234;7.268;2023-05-10T03:00:48;12.00;99.90
11079;DHT22;5592;49.234;7.268;2023-05-10T03:03:13;12.10;99.90
11079;DHT22;5592;49.234;7.268;2023-05-10T03:05:39;12.00;99.90
11079;DHT22;5592;49.234;7.268;2023-05-10T03:08:05;12.10;99.90
11079;DHT22;5592;49.234;7.268;2023-05-10T03:10:32;12.10;99.90
11079;DHT22;5592;49.234;7.268;2023-05-10T03:16:05;12.10;99.90
11079;DHT22;5592;49.234;7.268;2023-05-10T03:18:47;12.20;99.90
11079;DHT22;5592;49.234;7.268;2023-05-10T03:21:13;12.20;99.90
11079;DHT22;5592;49.234;7.268;2023-05-10T03:23:50;12.20;99.90
11079;DHT22;5592;49.234;7.268;2023-05-10T03:26:27;12.20;99.90
11079;DHT22;5592;49.234;7.268;2023-05-10T03:28:54;12.20;99.90
11079;DHT22;5592;49.234;7.268;2023-05-10T03:31:20;12.30;99.90
11079;DHT22;5592;49.234;7.268;2023-05-10T03:33:50;12.30;99.90
11079;DHT22;5592;49.234;7.268;2023-05-10T03:36:17;12.30;99.90
11079;DHT22;5592;49.234;7.268;2023-05-10T03:38:43;12.30;99.90
11079;DHT22;5592;49.234;7.268;2023-05-10T03:41:09;12.30;99.90
11079;DHT22;5592;49.234;7.268;2023-05-10T03:43:34;12.30;99.90
11079;DHT22;5592;49.234;7.268;2023-05-10T03:46:04;12.30;99.90
11079;DHT22;5592;49.234;7.268;2023-05-10T03:48:30;12.30;99.90
11079;DHT22;5592;49.234;7.268;2023-05-10T03:50:56;12.20;99.90
11079;DHT22;5592;49.234;7.268;2023-05-10T03:53:21;12.30;99.90
11079;DHT22;5592;49.234;7.268;2023-05-10T03:55:48;12.30;99.90
11079;DHT22;5592;49.234;7.268;2023-05-10T03:58:13;12.30;99.90
11079;DHT22;5592;49.234;7.268;2023-05-10T04:00:39;12.30;99.90
11079;DHT22;5592;49.234;7.268;2023-05-10T04:03:09;12.30;99.90
11079;DHT22;5592;49.234;7.268;2023-05-10T04:05:35;12.30;99.90
11079;DHT22;5592;49.234;7.268;2023-05-10T04:08:01;12.30;99.90
11079;DHT22;5592;49.234;7.268;2023-05-10T04:10:27;12.30;99.90
11079;DHT22;5592;49.234;7.268;2023-05-10T04:12:52;12.30;99.90
11079;DHT22;5592;49.234;7.268;2023-05-10T04:15:18;12.30;99.90
11079;DHT22;5592;49.234;7.268;2023-05-10T04:17:44;12.40;99.90
11079;DHT22;5592;49.234;7.268;2023-05-10T04:20:10;12.30;99.90
11079;DHT22;5592;49.234;7.268;2023-05-10T04:22:36;12.30;99.90
11079;DHT22;5592;49.234;7.268;2023-05-10T04:25:01;12.30;99.90
11079;DHT22;5592;49.234;7.268;2023-05-10T04:27:27;12.30;99.90
11079;DHT22;5592;49.234;7.268;2023-05-10T04:29:52;12.30;99.90
11079;DHT22;5592;49.234;7.268;2023-05-10T04:32:18;12.30;99.90
11079;DHT22;5592;49.234;7.268;2023-05-10T04:34:44;12.30;99.90
11079;DHT22;5592;49.234;7.268;2023-05-10T04:37:10;12.20;99.90
11079;DHT22;5592;49.234;7.268;2023-05-10T04:39:35;12.20;99.90
11079;DHT22;5592;49.234;7.268;2023-05-10T04:42:02;12.20;99.90
11079;DHT22;5592;49.234;7.268;2023-05-10T04:44:28;12.10;99.90
11079;DHT22;5592;49.234;7.268;2023-05-10T04:46:55;12.10;99.90
11079;DHT22;5592;49.234;7.268;2023-05-10T04:49:20;12.20;99.90
11079;DHT22;5592;49.234;7.268;2023-05-10T04:51:46;12.30;99.90
11079;DHT22;5592;49.234;7.268;2023-05-10T04:54:12;12.30;99.90
11079;DHT22;5592;49.234;7.268;2023-05-10T04:56:37;12.40;99.90
11079;DHT22;5592;49.234;7.268;2023-05-10T04:59:03;12.60;99.90
11079;DHT22;5592;49.234;7.268;2023-05-10T05:01:29;12.70;99.90
11079;DHT22;5592;49.234;7.268;2023-05-10T05:03:54;12.70;99.90
11079;DHT22;5592;49.234;7.268;2023-05-10T05:06:20;12.80;99.90
11079;DHT22;5592;49.234;7.268;2023-05-10T05:08:50;12.90;99.90
11079;DHT22;5592;49.234;7.268;2023-05-10T05:11:19;13.10;99.90
11079;DHT22;5592;49.234;7.268;2023-05-10T05:13:46;13.20;99.90
11079;DHT22;5592;49.234;7.268;2023-05-10T05:16:11;13.40;99.90
11079;DHT22;5592;49.234;7.268;2023-05-10T05:18:37;13.60;99.90
11079;DHT22;5592;49.234;7.268;2023-05-10T05:21:03;14.00;99.90
11079;DHT22;5592;49.234;7.268;2023-05-10T05:23:28;14.40;99.90
11079;DHT22;5592;49.234;7.268;2023-05-10T05:25:54;14.70;99.90
11079;DHT22;5592;49.234;7.268;2023-05-10T05:28:20;14.90;99.90
11079;DHT22;5592;49.234;7.268;2023-05-10T05:30:49;14.90;99.90
11079;DHT22;5592;49.234;7.268;2023-05-10T05:33:21;14.80;99.90
11079;DHT22;5592;49.234;7.268;2023-05-10T05:35:50;14.60;99.90
11079;DHT22;5592;49.234;7.268;2023-05-10T05:38:16;14.50;99.90
11079;DHT22;5592;49.234;7.268;2023-05-10T05:40:42;14.40;99.90
11079;DHT22;5592;49.234;7.268;2023-05-10T05:43:08;14.20;99.90
11079;DHT22;5592;49.234;7.268;2023-05-10T05:45:34;13.90;99.90
11079;DHT22;5592;49.234;7.268;2023-05-10T05:47:59;13.70;99.90
11079;DHT22;5592;49.234;7.268;2023-05-10T05:50:25;13.80;99.90
11079;DHT22;5592;49.234;7.268;2023-05-10T05:52:51;13.70;99.90
11079;DHT22;5592;49.234;7.268;2023-05-10T05:55:16;13.90;99.90
11079;DHT22;5592;49.234;7.268;2023-05-10T05:57:42;14.20;99.90
11079;DHT22;5592;49.234;7.268;2023-05-10T06:00:08;14.90;99.90
11079;DHT22;5592;49.234;7.268;2023-05-10T06:02:33;16.00;99.90
11079;DHT22;5592;49.234;7.268;2023-05-10T06:04:59;16.50;99.90
11079;DHT22;5592;49.234;7.268;2023-05-10T06:07:25;16.90;99.90
11079;DHT22;5592;49.234;7.268;2023-05-10T06:09:51;16.70;99.90
11079;DHT22;5592;49.234;7.268;2023-05-10T06:12:16;16.40;99.90
11079;DHT22;5592;49.234;7.268;2023-05-10T06:14:42;16.10;99.90
11079;DHT22;5592;49.234;7.268;2023-05-10T06:17:07;16.00;99.90
11079;DHT22;5592;49.234;7.268;2023-05-10T06:19:33;15.90;99.90
11079;DHT22;5592;49.234;7.268;2023-05-10T06:21:58;15.30;99.90
11079;DHT22;5592;49.234;7.268;2023-05-10T06:24:24;15.20;99.90
11079;DHT22;5592;49.234;7.268;2023-05-10T06:26:50;15.20;99.90
11079;DHT22;5592;49.234;7.268;2023-05-10T06:29:15;15.40;99.90
11079;DHT22;5592;49.234;7.268;2023-05-10T06:31:41;15.80;99.90
11079;DHT22;5592;49.234;7.268;2023-05-10T06:34:07;15.60;99.90
11079;DHT22;5592;49.234;7.268;2023-05-10T06:36:33;15.30;99.90
11079;DHT22;5592;49.234;7.268;2023-05-10T06:38:59;15.40;99.90
11079;DHT22;5592;49.234;7.268;2023-05-10T06:41:24;15.40;99.90
11079;DHT22;5592;49.234;7.268;2023-05-10T06:43:50;15.00;99.90
11079;DHT22;5592;49.234;7.268;2023-05-10T06:46:16;15.00;99.90
11079;DHT22;5592;49.234;7.268;2023-05-10T06:48:46;15.10;99.90
11079;DHT22;5592;49.234;7.268;2023-05-10T06:51:11;15.30;99.90
11079;DHT22;5592;49.234;7.268;2023-05-10T06:53:40;15.30;99.90
11079;DHT22;5592;49.234;7.268;2023-05-10T06:56:06;15.00;99.90
11079;DHT22;5592;49.234;7.268;2023-05-10T06:58:32;14.90;99.90
11079;DHT22;5592;49.234;7.268;2023-05-10T07:01:07;15.00;99.90
11079;DHT22;5592;49.234;7.268;2023-05-10T07:03:33;15.20;99.90
11079;DHT22;5592;49.234;7.268;2023-05-10T07:06:03;15.40;99.90
11079;DHT22;5592;49.234;7.268;2023-05-10T07:08:34;15.50;99.90
11079;DHT22;5592;49.234;7.268;2023-05-10T07:11:04;15.50;99.90
11079;DHT22;5592;49.234;7.268;2023-05-10T07:13:33;15.50;99.90
11079;DHT22;5592;49.234;7.268;2023-05-10T07:16:01;15.50;99.90
11079;DHT22;5592;49.234;7.268;2023-05-10T07:18:28;15.30;99.90
11079;DHT22;5592;49.234;7.268;2023-05-10T07:20:54;14.90;99.90
11079;DHT22;5592;49.234;7.268;2023-05-10T07:23:20;14.70;99.90
11079;DHT22;5592;49.234;7.268;2023-05-10T07:25:47;14.60;99.90
11079;DHT22;5592;49.234;7.268;2023-05-10T07:28:15;14.70;99.90
11079;DHT22;5592;49.234;7.268;2023-05-10T07:30:41;14.80;99.90
11079;DHT22;5592;49.234;7.268;2023-05-10T07:33:10;15.00;99.90
11079;DHT22;5592;49.234;7.268;2023-05-10T07:35:36;14.90;99.90
11079;DHT22;5592;49.234;7.268;2023-05-10T07:38:02;14.90;99.90
11079;DHT22;5592;49.234;7.268;2023-05-10T07:40:28;15.10;99.90
11079;DHT22;5592;49.234;7.268;2023-05-10T07:42:54;15.10;99.90
11079;DHT22;5592;49.234;7.268;2023-05-10T07:45:19;15.10;99.90
11079;DHT22;5592;49.234;7.268;2023-05-10T07:47:45;14.80;99.90
11079;DHT22;5592;49.234;7.268;2023-05-10T07:50:13;14.50;99.90
11079;DHT22;5592;49.234;7.268;2023-05-10T07:52:38;14.40;99.90
11079;DHT22;5592;49.234;7.268;2023-05-10T07:55:09;14.40;99.90
11079;DHT22;5592;49.234;7.268;2023-05-10T07:57:37;14.60;99.90
11079;DHT22;5592;49.234;7.268;2023-05-10T08:00:05;14.90;99.90
11079;DHT22;5592;49.234;7.268;2023-05-10T08:02:34;15.30;99.90
11079;DHT22;5592;49.234;7.268;2023-05-10T08:05:01;15.40;99.90
11079;DHT22;5592;49.234;7.268;2023-05-10T08:07:27;15.50;99.90
11079;DHT22;5592;49.234;7.268;2023-05-10T08:09:53;15.30;99.90
11079;DHT22;5592;49.234;7.268;2023-05-10T08:12:20;15.30;99.90
11079;DHT22;5592;49.234;7.268;2023-05-10T08:14:47;15.70;99.90
11079;DHT22;5592;49.234;7.268;2023-05-10T08:17:13;17.10;99.90
11079;DHT22;5592;49.234;7.268;2023-05-10T08:19:43;17.90;99.90
11079;DHT22;5592;49.234;7.268;2023-05-10T08:22:18;18.00;99.90
11079;DHT22;5592;49.234;7.268;2023-05-10T08:27:20;17.30;99.90
11079;DHT22;5592;49.234;7.268;2023-05-10T08:29:47;16.80;99.90
11079;DHT22;5592;49.234;7.268;2023-05-10T08:32:14;15.70;99.90
11079;DHT22;5592;49.234;7.268;2023-05-10T08:34:42;15.30;99.90
11079;DHT22;5592;49.234;7.268;2023-05-10T08:37:08;15.30;99.90
11079;DHT22;5592;49.234;7.268;2023-05-10T08:39:38;15.20;99.90
11079;DHT22;5592;49.234;7.268;2023-05-10T08:42:06;15.00;99.90
11079;DHT22;5592;49.234;7.268;2023-05-10T08:44:35;14.90;99.90
11079;DHT22;5592;49.234;7.268;2023-05-10T08:47:05;14.80;99.90
11079;DHT22;5592;49.234;7.268;2023-05-10T08:49:34;14.90;99.90
11079;DHT22;5592;49.234;7.268;2023-05-10T08:52:02;15.60;99.90
11079;DHT22;5592;49.234;7.268;2023-05-10T08:54:31;16.80;99.90
11079;DHT22;5592;49.234;7.268;2023-05-10T08:56:59;18.80;99.90
11079;DHT22;5592;49.234;7.268;2023-05-10T08:59:27;21.10;99.90
11079;DHT22;5592;49.234;7.268;2023-05-10T09:01:53;21.00;99.90
11079;DHT22;5592;49.234;7.268;2023-05-10T09:04:21;20.30;99.90
11079;DHT22;5592;49.234;7.268;2023-05-10T09:06:48;19.50;99.90
11079;DHT22;5592;49.234;7.268;2023-05-10T09:09:15;18.70;99.90
11079;DHT22;5592;49.234;7.268;2023-05-10T09:11:43;17.90;99.90
11079;DHT22;5592;49.234;7.268;2023-05-10T09:14:12;16.80;99.90
11079;DHT22;5592;49.234;7.268;2023-05-10T09:16:39;16.10;99.90
11079;DHT22;5592;49.234;7.268;2023-05-10T09:19:05;16.80;99.90
11079;DHT22;5592;49.234;7.268;2023-05-10T09:21:32;17.70;99.90
11079;DHT22;5592;49.234;7.268;2023-05-10T09:24:03;18.20;99.90
11079;DHT22;5592;49.234;7.268;2023-05-10T09:26:29;20.20;99.90
11079;DHT22;5592;49.234;7.268;2023-05-10T09:28:56;22.20;99.90
11079;DHT22;5592;49.234;7.268;2023-05-10T09:31:22;22.30;99.90
11079;DHT22;5592;49.234;7.268;2023-05-10T09:33:53;21.40;99.90
11079;DHT22;5592;49.234;7.268;2023-05-10T09:36:21;21.20;99.90
11079;DHT22;5592;49.234;7.268;2023-05-10T09:38:51;20.20;99.90
11079;DHT22;5592;49.234;7.268;2023-05-10T09:41:24;20.70;99.90
11079;DHT22;5592;49.234;7.268;2023-05-10T09:43:57;21.30;99.90
11079;DHT22;5592;49.234;7.268;2023-05-10T09:46:23;20.70;99.90
11079;DHT22;5592;49.234;7.268;2023-05-10T09:48:49;20.10;99.90
11079;DHT22;5592;49.234;7.268;2023-05-10T09:51:26;19.00;99.90
11079;DHT22;5592;49.234;7.268;2023-05-10T09:54:14;17.90;99.90
11079;DHT22;5592;49.234;7.268;2023-05-10T09:56:40;17.00;99.90
11079;DHT22;5592;49.234;7.268;2023-05-10T09:59:09;16.90;99.90
11079;DHT22;5592;49.234;7.268;2023-05-10T10:01:36;18.40;99.90
11079;DHT22;5592;49.234;7.268;2023-05-10T10:04:06;20.10;99.90
11079;DHT22;5592;49.234;7.268;2023-05-10T10:06:38;20.90;99.90
11079;DHT22;5592;49.234;7.268;2023-05-10T10:09:05;20.70;99.90
11079;DHT22;5592;49.234;7.268;2023-05-10T10:11:31;20.50;99.90
11079;DHT22;5592;49.234;7.268;2023-05-10T10:13:59;19.10;99.90
11079;DHT22;5592;49.234;7.268;2023-05-10T10:16:25;19.00;99.90
11079;DHT22;5592;49.234;7.268;2023-05-10T10:18:51;19.20;99.90
11079;DHT22;5592;49.234;7.268;2023-05-10T10:21:20;18.90;99.90
11079;DHT22;5592;49.234;7.268;2023-05-10T10:23:46;18.20;99.90
11079;DHT22;5592;49.234;7.268;2023-05-10T10:26:12;17.60;99.90
11079;DHT22;5592;49.234;7.268;2023-05-10T10:31:40;18.30;99.90
11079;DHT22;5592;49.234;7.268;2023-05-10T10:34:09;17.90;99.90
11079;DHT22;5592;49.234;7.268;2023-05-10T10:36:47;17.30;99.90
11079;DHT22;5592;49.234;7.268;2023-05-10T10:39:14;17.40;99.90
11079;DHT22;5592;49.234;7.268;2023-05-10T10:41:52;17.00;99.90
11079;DHT22;5592;49.234;7.268;2023-05-10T10:49:28;16.90;99.90
11079;DHT22;5592;49.234;7.268;2023-05-10T10:55:19;16.80;99.90
11079;DHT22;5592;49.234;7.268;2023-05-10T10:57:53;16.50;99.90
11079;DHT22;5592;49.234;7.268;2023-05-10T11:03:09;16.90;99.90
11079;DHT22;5592;49.234;7.268;2023-05-10T11:05:53;16.90;99.90
11079;DHT22;5592;49.234;7.268;2023-05-10T11:08:31;16.30;99.90
11079;DHT22;5592;49.234;7.268;2023-05-10T11:11:05;16.30;99.90
11079;DHT22;5592;49.234;7.268;2023-05-10T11:13:38;16.50;99.90
11079;DHT22;5592;49.234;7.268;2023-05-10T11:16:18;16.70;99.90
11079;DHT22;5592;49.234;7.268;2023-05-10T11:19:07;17.00;99.90
11079;DHT22;5592;49.234;7.268;2023-05-10T11:21:33;16.90;99.90
11079;DHT22;5592;49.234;7.268;2023-05-10T11:24:00;17.40;99.90
11079;DHT22;5592;49.234;7.268;2023-05-10T11:26:32;17.40;99.90
11079;DHT22;5592;49.234;7.268;2023-05-10T11:28:59;17.90;99.90
11079;DHT22;5592;49.234;7.268;2023-05-10T11:31:27;18.10;99.90
11079;DHT22;5592;49.234;7.268;2023-05-10T11:33:58;17.40;99.90
11079;DHT22;5592;49.234;7.268;2023-05-10T11:36:25;17.20;99.90
11079;DHT22;5592;49.234;7.268;2023-05-10T11:38:51;17.20;99.90
11079;DHT22;5592;49.234;7.268;2023-05-10T11:41:18;16.60;99.90
11079;DHT22;5592;49.234;7.268;2023-05-10T11:43:47;16.40;99.90
11079;DHT22;5592;49.234;7.268;2023-05-10T11:46:19;17.00;99.90
11079;DHT22;5592;49.234;7.268;2023-05-10T11:48:46;17.50;99.90
11079;DHT22;5592;49.234;7.268;2023-05-10T11:51:12;17.80;99.90
11079;DHT22;5592;49.234;7.268;2023-05-10T11:53:38;17.80;99.90
11079;DHT22;5592;49.234;7.268;2023-05-10T11:56:10;17.30;99.90
11079;DHT22;5592;49.234;7.268;2023-05-10T11:58:37;17.10;99.90
11079;DHT22;5592;49.234;7.268;2023-05-10T12:01:07;17.70;99.90
11079;DHT22;5592;49.234;7.268;2023-05-10T12:03:33;18.40;99.90
11079;DHT22;5592;49.234;7.268;2023-05-10T12:05:59;18.90;99.90
11079;DHT22;5592;49.234;7.268;2023-05-10T12:08:27;19.30;99.90
11079;DHT22;5592;49.234;7.268;2023-05-10T12:11:13;19.50;99.90
11079;DHT22;5592;49.234;7.268;2023-05-10T12:13:42;18.70;99.90
11079;DHT22;5592;49.234;7.268;2023-05-10T12:16:16;18.20;99.90
11079;DHT22;5592;49.234;7.268;2023-05-10T12:18:41;17.50;99.90
11079;DHT22;5592;49.234;7.268;2023-05-10T12:21:13;18.00;99.90
11079;DHT22;5592;49.234;7.268;2023-05-10T12:23:40;18.60;99.90
11079;DHT22;5592;49.234;7.268;2023-05-10T12:26:09;19.50;99.90
11079;DHT22;5592;49.234;7.268;2023-05-10T12:28:37;20.00;99.90
11079;DHT22;5592;49.234;7.268;2023-05-10T12:34:33;19.70;99.90
11079;DHT22;5592;49.234;7.268;2023-05-10T12:37:00;19.20;99.90
11079;DHT22;5592;49.234;7.268;2023-05-10T12:39:26;18.70;99.90
11079;DHT22;5592;49.234;7.268;2023-05-10T12:41:52;18.60;99.90
11079;DHT22;5592;49.234;7.268;2023-05-10T12:44:18;18.90;99.90
11079;DHT22;5592;49.234;7.268;2023-05-10T12:46:43;19.20;99.90
11079;DHT22;5592;49.234;7.268;2023-05-10T12:49:09;18.90;99.90
11079;DHT22;5592;49.234;7.268;2023-05-10T12:51:35;18.90;99.90
11079;DHT22;5592;49.234;7.268;2023-05-10T12:54:02;18.80;99.90
11079;DHT22;5592;49.234;7.268;2023-05-10T12:56:28;18.70;99.90
11079;DHT22;5592;49.234;7.268;2023-05-10T12:58:53;18.70;99.90
11079;DHT22;5592;49.234;7.268;2023-05-10T13:01:22;18.70;99.90
11079;DHT22;5592;49.234;7.268;2023-05-10T13:03:47;19.00;99.90
11079;DHT22;5592;49.234;7.268;2023-05-10T13:06:13;19.20;99.90
11079;DHT22;5592;49.234;7.268;2023-05-10T13:08:39;18.50;99.90
11079;DHT22;5592;49.234;7.268;2023-05-10T13:11:08;18.40;99.90
11079;DHT22;5592;49.234;7.268;2023-05-10T13:13:34;18.40;99.90
11079;DHT22;5592;49.234;7.268;2023-05-10T13:16:00;18.80;99.90
11079;DHT22;5592;49.234;7.268;2023-05-10T13:18:25;19.30;99.90
11079;DHT22;5592;49.234;7.268;2023-05-10T13:20:51;19.30;99.90
11079;DHT22;5592;49.234;7.268;2023-05-10T13:23:17;19.00;99.90
11079;DHT22;5592;49.234;7.268;2023-05-10T13:25:42;18.70;99.90
11079;DHT22;5592;49.234;7.268;2023-05-10T13:28:08;18.40;99.90
11079;DHT22;5592;49.234;7.268;2023-05-10T13:30:33;18.00;99.90
11079;DHT22;5592;49.234;7.268;2023-05-10T13:32:59;17.80;99.90
11079;DHT22;5592;49.234;7.268;2023-05-10T13:35:25;17.60;99.90
11079;DHT22;5592;49.234;7.268;2023-05-10T13:37:51;17.70;99.90
11079;DHT22;5592;49.234;7.268;2023-05-10T13:40:18;17.90;99.90
11079;DHT22;5592;49.234;7.268;2023-05-10T13:42:46;18.00;99.90
11079;DHT22;5592;49.234;7.268;2023-05-10T13:45:12;17.90;99.90
11079;DHT22;5592;49.234;7.268;2023-05-10T13:47:38;17.70;99.90
11079;DHT22;5592;49.234;7.268;2023-05-10T13:50:04;17.40;99.90
11079;DHT22;5592;49.234;7.268;2023-05-10T13:52:30;17.40;99.90
11079;DHT22;5592;49.234;7.268;2023-05-10T13:54:56;17.60;99.90
11079;DHT22;5592;49.234;7.268;2023-05-10T13:57:22;17.80;99.90
11079;DHT22;5592;49.234;7.268;2023-05-10T13:59:49;17.90;99.90
11079;DHT22;5592;49.234;7.268;2023-05-10T14:02:14;18.00;99.90
11079;DHT22;5592;49.234;7.268;2023-05-10T14:04:40;18.10;99.90
11079;DHT22;5592;49.234;7.268;2023-05-10T14:07:06;18.00;99.90
11079;DHT22;5592;49.234;7.268;2023-05-10T14:09:31;17.80;99.90
11079;DHT22;5592;49.234;7.268;2023-05-10T14:11:57;17.70;99.90
11079;DHT22;5592;49.234;7.268;2023-05-10T14:14:23;17.50;99.90
11079;DHT22;5592;49.234;7.268;2023-05-10T14:16:48;17.40;99.90
11079;DHT22;5592;49.234;7.268;2023-05-10T14:19:14;17.50;99.90
11079;DHT22;5592;49.234;7.268;2023-05-10T14:21:39;17.60;99.90
11079;DHT22;5592;49.234;7.268;2023-05-10T14:24:05;17.80;99.90
11079;DHT22;5592;49.234;7.268;2023-05-10T14:26:32;17.80;99.90
11079;DHT22;5592;49.234;7.268;2023-05-10T14:28:59;17.40;99.90
11079;DHT22;5592;49.234;7.268;2023-05-10T14:31:25;17.20;99.90
11079;DHT22;5592;49.234;7.268;2023-05-10T14:33:51;17.10;99.90
11079;DHT22;5592;49.234;7.268;2023-05-10T14:36:17;17.30;99.90
11079;DHT22;5592;49.234;7.268;2023-05-10T14:38:43;17.30;99.90
11079;DHT22;5592;49.234;7.268;2023-05-10T14:41:08;17.40;99.90
11079;DHT22;5592;49.234;7.268;2023-05-10T14:43:34;17.40;99.90
11079;DHT22;5592;49.234;7.268;2023-05-10T14:46:00;17.30;99.90
11079;DHT22;5592;49.234;7.268;2023-05-10T14:48:26;17.50;99.90
11079;DHT22;5592;49.234;7.268;2023-05-10T14:50:51;17.70;99.90
11079;DHT22;5592;49.234;7.268;2023-05-10T14:53:17;17.80;99.90
11079;DHT22;5592;49.234;7.268;2023-05-10T14:55:43;18.00;99.90
11079;DHT22;5592;49.234;7.268;2023-05-10T14:58:09;18.10;99.90
11079;DHT22;5592;49.234;7.268;2023-05-10T15:00:34;18.20;99.90
11079;DHT22;5592;49.234;7.268;2023-05-10T15:03:00;18.10;99.90
11079;DHT22;5592;49.234;7.268;2023-05-10T15:05:26;17.90;99.90
11079;DHT22;5592;49.234;7.268;2023-05-10T15:07:51;17.70;99.90
11079;DHT22;5592;49.234;7.268;2023-05-10T15:10:18;17.50;99.90
11079;DHT22;5592;49.234;7.268;2023-05-10T15:12:43;17.30;99.90
11079;DHT22;5592;49.234;7.268;2023-05-10T15:15:09;17.20;99.90
11079;DHT22;5592;49.234;7.268;2023-05-10T15:17:34;17.20;99.90
11079;DHT22;5592;49.234;7.268;2023-05-10T15:20:01;17.30;99.90
11079;DHT22;5592;49.234;7.268;2023-05-10T15:22:28;17.10;99.90
11079;DHT22;5592;49.234;7.268;2023-05-10T15:24:54;17.10;99.90
11079;DHT22;5592;49.234;7.268;2023-05-10T15:27:20;17.20;99.90
11079;DHT22;5592;49.234;7.268;2023-05-10T15:29:45;16.90;99.90
11079;DHT22;5592;49.234;7.268;2023-05-10T15:32:11;16.60;99.90
11079;DHT22;5592;49.234;7.268;2023-05-10T15:34:37;16.30;99.90
11079;DHT22;5592;49.234;7.268;2023-05-10T15:37:03;16.10;99.90
11079;DHT22;5592;49.234;7.268;2023-05-10T15:39:28;15.90;99.90
11079;DHT22;5592;49.234;7.268;2023-05-10T15:41:54;15.80;99.90
11079;DHT22;5592;49.234;7.268;2023-05-10T15:44:19;15.70;99.90
11079;DHT22;5592;49.234;7.268;2023-05-10T15:46:45;15.30;99.90
11079;DHT22;5592;49.234;7.268;2023-05-10T15:49:11;15.10;99.90
11079;DHT22;5592;49.234;7.268;2023-05-10T15:51:36;14.90;99.90
11079;DHT22;5592;49.234;7.268;2023-05-10T15:54:02;14.60;99.90
11079;DHT22;5592;49.234;7.268;2023-05-10T15:56:28;14.40;99.90
11079;DHT22;5592;49.234;7.268;2023-05-10T15:58:54;14.40;99.90
11079;DHT22;5592;49.234;7.268;2023-05-10T16:01:20;14.20;99.90
11079;DHT22;5592;49.234;7.268;2023-05-10T16:03:46;14.00;99.90
11079;DHT22;5592;49.234;7.268;2023-05-10T16:06:11;14.10;99.90
11079;DHT22;5592;49.234;7.268;2023-05-10T16:08:37;14.20;99.90
11079;DHT22;5592;49.234;7.268;2023-05-10T16:11:03;14.30;99.90
11079;DHT22;5592;49.234;7.268;2023-05-10T16:13:29;14.50;99.90
11079;DHT22;5592;49.234;7.268;2023-05-10T16:15:55;14.70;99.90
11079;DHT22;5592;49.234;7.268;2023-05-10T16:18:22;14.70;99.90